Time;durP1;ratioP1;P1;durP2;ratioP2;P2;SDS_P1;SDS_P2;PMS_P1;PMS_P2;Temp;Humidity;BMP_temperature;BMP_pressure;BME280_temperature;BME280_humidity;BME280_pressure;Samples;Min_cycle;Max_cycle;Signal;HPM_P1;HPM_P2
2022/10/13 00:00:45;;;;;;;11.15;6.15;;;14.70;99.90;;;;;;5029072;28;20064;-72
2022/10/13 00:03:10;;;;;;;16.33;6.93;;;14.70;99.90;;;;;;5029947;28;20121;-72
2022/10/13 00:05:47;;;;;;;14.82;6.47;;;14.60;99.90;;;;;;5028371;28;20104;-72
2022/10/13 00:08:17;;;;;;;9.20;6.03;;;14.60;99.90;;;;;;5031043;28;20079;-72
2022/10/13 00:10:44;;;;;;;11.13;5.85;;;14.70;99.90;;;;;;5033504;28;20033;-72
2022/10/13 00:13:09;;;;;;;11.93;6.85;;;14.70;99.90;;;;;;5028936;28;20045;-72
2022/10/13 00:15:40;;;;;;;11.93;6.53;;;14.60;99.90;;;;;;5028188;28;20041;-72
2022/10/13 00:18:06;;;;;;;10.70;6.63;;;14.60;99.90;;;;;;5029356;28;20056;-72
2022/10/13 00:20:33;;;;;;;10.38;5.55;;;14.60;99.90;;;;;;5029175;28;20392;-72
2022/10/13 00:22:58;;;;;;;15.05;6.72;;;14.40;99.90;;;;;;5030416;28;20884;-72
2022/10/13 00:25:24;;;;;;;11.27;6.30;;;14.30;99.90;;;;;;5029173;28;20030;-73
2022/10/13 00:27:50;;;;;;;10.80;6.50;;;14.20;99.90;;;;;;5029945;28;20025;-73
2022/10/13 00:30:15;;;;;;;11.98;6.30;;;14.20;99.90;;;;;;5028336;28;20069;-72
2022/10/13 00:32:41;;;;;;;13.88;6.15;;;14.20;99.90;;;;;;5035277;28;20064;-72
2022/10/13 00:35:07;;;;;;;13.00;6.00;;;14.20;99.90;;;;;;5029282;28;20095;-72
2022/10/13 00:37:33;;;;;;;11.82;5.25;;;14.20;99.90;;;;;;5031838;28;20037;-72
2022/10/13 00:39:58;;;;;;;10.68;5.80;;;14.20;99.90;;;;;;5028456;28;20500;-73
2022/10/13 00:42:27;;;;;;;9.82;4.93;;;14.10;99.90;;;;;;5035033;28;20563;-72
2022/10/13 00:45:14;;;;;;;9.38;5.38;;;14.20;99.90;;;;;;5027915;28;20045;-72
2022/10/13 00:47:44;;;;;;;12.10;6.03;;;14.20;99.90;;;;;;5028076;28;20029;-72
2022/10/13 00:50:15;;;;;;;9.45;5.97;;;14.30;99.90;;;;;;5028143;28;20036;-72
2022/10/13 00:52:41;;;;;;;10.65;5.55;;;14.40;99.90;;;;;;5028230;28;20111;-73
2022/10/13 00:55:10;;;;;;;10.93;6.07;;;14.30;99.90;;;;;;5028610;28;20608;-72
2022/10/13 00:57:39;;;;;;;10.52;5.88;;;14.20;99.90;;;;;;5030606;28;20026;-72
2022/10/13 01:00:05;;;;;;;8.85;6.25;;;14.20;99.90;;;;;;5028415;28;20025;-72
2022/10/13 01:02:35;;;;;;;9.35;5.50;;;14.30;99.90;;;;;;5029948;28;20026;-72
2022/10/13 01:05:02;;;;;;;7.88;5.13;;;14.30;99.90;;;;;;5027895;28;20029;-72
2022/10/13 01:07:29;;;;;;;10.80;5.40;;;14.20;99.90;;;;;;5028575;28;20380;-72
2022/10/13 01:09:55;;;;;;;10.07;5.03;;;13.90;99.90;;;;;;5034935;28;20025;-72
2022/10/13 01:12:33;;;;;;;9.30;5.10;;;13.90;99.90;;;;;;5027435;28;20075;-72
2022/10/13 01:14:59;;;;;;;12.52;6.20;;;14.00;99.90;;;;;;5027207;28;20547;-72
2022/10/13 01:17:33;;;;;;;13.00;4.88;;;14.00;99.90;;;;;;5035394;28;20116;-72
2022/10/13 01:20:20;;;;;;;9.75;5.65;;;13.90;99.90;;;;;;5027726;28;20554;-72
2022/10/13 01:23:11;;;;;;;13.05;6.38;;;13.90;99.90;;;;;;5028806;28;20120;-72
2022/10/13 01:26:12;;;;;;;7.47;4.82;;;14.00;99.90;;;;;;5028233;28;20029;-72
2022/10/13 01:29:08;;;;;;;12.82;5.97;;;14.00;99.90;;;;;;5028049;28;20029;-72
2022/10/13 01:31:40;;;;;;;8.80;4.18;;;14.00;99.90;;;;;;5031605;28;20025;-73
2022/10/13 01:34:32;;;;;;;10.30;4.97;;;13.90;99.90;;;;;;5037993;28;20025;-73
2022/10/13 01:37:01;;;;;;;13.82;4.70;;;13.90;99.90;;;;;;5030061;28;20488;-72
2022/10/13 01:39:45;;;;;;;10.82;4.90;;;13.80;99.90;;;;;;5027219;28;20037;-73
2022/10/13 01:42:18;;;;;;;10.25;5.22;;;13.70;99.90;;;;;;5027979;28;20034;-72
2022/10/13 01:44:55;;;;;;;14.82;6.00;;;13.70;99.90;;;;;;5031133;28;20400;-72
2022/10/13 01:47:24;;;;;;;13.43;6.20;;;13.70;99.90;;;;;;5028624;28;20032;-72
2022/10/13 01:49:52;;;;;;;12.85;5.55;;;13.60;99.90;;;;;;5027486;28;20029;-72
2022/10/13 01:52:21;;;;;;;11.50;4.97;;;13.60;99.90;;;;;;5027908;28;20112;-72
2022/10/13 01:54:52;;;;;;;10.30;5.15;;;13.50;99.90;;;;;;5031829;28;20029;-72
2022/10/13 01:57:33;;;;;;;14.48;4.95;;;13.50;99.90;;;;;;5034505;28;20033;-72
2022/10/13 02:00:03;;;;;;;10.70;5.18;;;13.50;99.90;;;;;;5027038;28;20026;-72
2022/10/13 02:03:05;;;;;;;12.15;5.30;;;13.50;99.90;;;;;;5028668;28;20029;-72
2022/10/13 02:05:42;;;;;;;10.88;5.88;;;13.40;99.90;;;;;;5031310;28;20511;-72
2022/10/13 02:08:18;;;;;;;8.38;5.63;;;13.30;99.90;;;;;;5029879;28;20033;-72
2022/10/13 02:10:51;;;;;;;13.40;5.95;;;13.40;99.90;;;;;;5032543;28;20069;-72
2022/10/13 02:13:20;;;;;;;10.70;5.18;;;13.40;99.90;;;;;;5029310;28;20104;-73
2022/10/13 02:15:51;;;;;;;11.23;5.82;;;13.40;99.90;;;;;;5031585;28;20144;-72
2022/10/13 02:18:21;;;;;;;11.50;5.10;;;13.40;99.90;;;;;;5031450;28;20443;-72
2022/10/13 02:20:48;;;;;;;14.50;5.75;;;13.40;99.90;;;;;;5031169;28;20064;-72
2022/10/13 02:23:15;;;;;;;13.30;5.60;;;13.40;99.90;;;;;;5031694;28;20037;-73
2022/10/13 02:25:42;;;;;;;12.40;5.95;;;13.50;99.90;;;;;;5039892;28;20523;-72
2022/10/13 02:28:09;;;;;;;13.80;5.90;;;13.50;99.90;;;;;;5030130;28;20106;-72
2022/10/13 02:30:38;;;;;;;12.70;5.85;;;13.50;99.90;;;;;;5038174;28;20398;-72
2022/10/13 02:33:04;;;;;;;12.60;5.80;;;13.70;99.90;;;;;;5030095;28;20033;-72
2022/10/13 02:35:31;;;;;;;14.50;5.80;;;13.70;99.90;;;;;;5029978;28;20044;-72
2022/10/13 02:37:57;;;;;;;13.73;5.32;;;13.70;99.90;;;;;;5030702;28;20025;-72
2022/10/13 02:40:23;;;;;;;11.10;5.03;;;13.60;99.90;;;;;;5032688;28;20380;-72
2022/10/13 02:42:49;;;;;;;9.45;5.20;;;13.50;99.90;;;;;;5030316;28;20025;-72
2022/10/13 02:45:15;;;;;;;13.30;5.80;;;13.40;99.90;;;;;;5032620;28;20491;-73
2022/10/13 02:47:40;;;;;;;11.80;6.40;;;13.50;99.90;;;;;;5034088;28;20413;-72
2022/10/13 02:50:07;;;;;;;10.38;5.78;;;13.40;99.90;;;;;;5029906;28;20022;-72
2022/10/13 02:52:32;;;;;;;12.13;6.25;;;13.20;99.90;;;;;;5030390;28;20028;-72
2022/10/13 02:54:58;;;;;;;13.05;6.20;;;13.10;99.90;;;;;;5032092;28;20029;-72
2022/10/13 02:57:23;;;;;;;12.48;6.20;;;13.00;99.90;;;;;;5031973;28;20041;-72
2022/10/13 02:59:49;;;;;;;9.55;5.30;;;13.00;99.90;;;;;;5034477;28;20036;-72
2022/10/13 03:02:16;;;;;;;8.82;4.78;;;13.10;99.90;;;;;;5030279;28;20030;-72
2022/10/13 03:04:41;;;;;;;9.65;5.85;;;13.10;99.90;;;;;;5027388;28;20055;-73
2022/10/13 03:07:07;;;;;;;9.57;5.68;;;13.00;99.90;;;;;;5024852;28;20029;-72
2022/10/13 03:09:33;;;;;;;11.57;5.60;;;13.00;99.90;;;;;;5024768;28;20035;-73
2022/10/13 03:11:58;;;;;;;11.30;6.25;;;13.00;99.90;;;;;;5025118;28;20029;-72
2022/10/13 03:14:24;;;;;;;11.15;5.55;;;13.00;99.90;;;;;;5025914;28;20057;-73
2022/10/13 03:16:49;;;;;;;11.32;5.68;;;13.00;99.90;;;;;;5025099;28;20194;-72
2022/10/13 03:19:15;;;;;;;12.05;6.13;;;13.00;99.90;;;;;;5021987;28;20029;-72
2022/10/13 03:21:41;;;;;;;8.57;5.15;;;12.90;99.90;;;;;;5022840;28;20033;-73
2022/10/13 03:24:07;;;;;;;11.73;5.80;;;12.80;99.90;;;;;;5026450;28;20037;-73
2022/10/13 03:26:33;;;;;;;12.23;5.78;;;12.80;99.90;;;;;;5025471;28;20025;-73
2022/10/13 03:28:59;;;;;;;11.70;5.78;;;12.70;99.90;;;;;;5024544;28;20032;-72
2022/10/13 03:31:25;;;;;;;11.05;5.82;;;12.70;99.90;;;;;;5025967;28;20033;-72
2022/10/13 03:33:50;;;;;;;12.52;6.55;;;12.70;99.90;;;;;;5026951;28;20036;-72
2022/10/13 03:36:17;;;;;;;14.63;7.40;;;12.70;99.90;;;;;;5025220;28;20049;-72
2022/10/13 03:38:42;;;;;;;10.77;6.15;;;12.60;99.90;;;;;;5025841;28;20120;-72
2022/10/13 03:41:14;;;;;;;15.65;7.13;;;12.60;99.90;;;;;;5025426;28;20112;-72
2022/10/13 03:43:41;;;;;;;16.40;6.65;;;12.70;99.90;;;;;;5023316;28;20048;-72
2022/10/13 03:46:09;;;;;;;11.18;6.20;;;12.70;99.90;;;;;;5024894;28;20026;-73
2022/10/13 03:48:35;;;;;;;11.10;6.28;;;12.70;99.90;;;;;;5032731;28;20584;-72
2022/10/13 03:51:06;;;;;;;11.32;6.50;;;12.70;99.90;;;;;;5025690;28;20068;-72
2022/10/13 03:53:32;;;;;;;11.30;6.20;;;12.80;99.90;;;;;;5025315;28;20083;-72
2022/10/13 03:55:57;;;;;;;11.55;6.07;;;12.60;99.90;;;;;;5026908;28;20138;-73
2022/10/13 03:58:24;;;;;;;16.42;6.97;;;12.70;99.90;;;;;;5023294;28;20048;-73
2022/10/13 04:00:51;;;;;;;14.88;6.53;;;12.70;99.90;;;;;;5021418;28;20099;-73
2022/10/13 04:03:16;;;;;;;11.13;5.93;;;12.80;99.90;;;;;;5021152;28;20175;-72
2022/10/13 04:05:43;;;;;;;13.30;6.85;;;12.80;99.90;;;;;;5022133;28;20071;-73
2022/10/13 04:08:09;;;;;;;15.90;6.55;;;12.70;99.90;;;;;;5029019;28;20933;-72
2022/10/13 04:10:35;;;;;;;13.80;6.95;;;12.80;99.90;;;;;;5021052;28;20124;-72
2022/10/13 04:13:00;;;;;;;17.08;6.65;;;12.80;99.90;;;;;;5021534;28;20116;-72
2022/10/13 04:15:26;;;;;;;12.00;6.32;;;13.00;99.90;;;;;;5028151;28;20124;-73
2022/10/13 04:17:52;;;;;;;12.85;6.55;;;13.00;99.90;;;;;;5021584;28;20029;-73
2022/10/13 04:20:18;;;;;;;15.35;5.53;;;13.10;99.90;;;;;;5021837;28;20450;-72
2022/10/13 04:22:43;;;;;;;15.13;6.85;;;13.00;99.90;;;;;;5021551;28;20360;-72
2022/10/13 04:25:09;;;;;;;10.68;5.90;;;12.90;99.90;;;;;;5020454;28;20041;-73
2022/10/13 04:27:37;;;;;;;12.82;6.38;;;12.70;99.90;;;;;;5029508;28;20120;-73
2022/10/13 04:30:04;;;;;;;10.85;5.93;;;12.70;99.90;;;;;;5022280;28;20043;-73
2022/10/13 04:32:30;;;;;;;13.18;5.65;;;12.80;99.90;;;;;;5021738;28;20031;-73
2022/10/13 04:34:55;;;;;;;10.98;6.22;;;12.80;99.90;;;;;;5021884;28;20135;-73
2022/10/13 04:37:22;;;;;;;11.07;5.88;;;12.70;99.90;;;;;;5020866;28;20048;-73
2022/10/13 04:39:48;;;;;;;16.48;7.22;;;12.70;99.90;;;;;;5022577;28;20033;-73
2022/10/13 04:42:13;;;;;;;10.00;6.28;;;12.80;99.90;;;;;;5020649;28;20083;-73
2022/10/13 04:44:39;;;;;;;12.35;6.65;;;12.90;99.90;;;;;;5021106;28;20045;-73
2022/10/13 04:47:05;;;;;;;11.45;7.05;;;12.90;99.90;;;;;;5027314;28;20029;-73
2022/10/13 04:49:30;;;;;;;10.00;6.63;;;12.90;99.90;;;;;;5022458;28;20040;-73
2022/10/13 04:51:56;;;;;;;13.63;6.22;;;12.80;99.90;;;;;;5021071;28;20452;-73
2022/10/13 04:54:22;;;;;;;12.10;7.13;;;12.70;99.90;;;;;;5022670;28;20033;-72
2022/10/13 04:56:47;;;;;;;11.23;5.47;;;12.60;99.90;;;;;;5020699;28;20048;-73
2022/10/13 04:59:13;;;;;;;9.95;5.50;;;12.60;99.90;;;;;;5020733;28;20108;-73
2022/10/13 05:01:39;;;;;;;11.20;6.35;;;12.60;99.90;;;;;;5021612;28;20029;-73
2022/10/13 05:04:05;;;;;;;10.98;6.32;;;12.50;99.90;;;;;;5021288;28;20037;-72
2022/10/13 05:06:33;;;;;;;12.18;6.05;;;12.50;99.90;;;;;;5022999;28;20056;-72
2022/10/13 05:08:59;;;;;;;12.55;6.97;;;12.60;99.90;;;;;;5022914;28;20038;-73
2022/10/13 05:11:26;;;;;;;13.27;5.63;;;12.60;99.90;;;;;;5020433;28;20549;-72
2022/10/13 05:13:52;;;;;;;12.48;6.13;;;12.60;99.90;;;;;;5021200;28;20044;-72
2022/10/13 05:16:20;;;;;;;11.15;6.32;;;12.70;99.90;;;;;;5025078;28;20612;-72
2022/10/13 05:18:46;;;;;;;13.02;6.03;;;12.60;99.90;;;;;;5023085;28;20124;-72
2022/10/13 05:21:14;;;;;;;11.93;5.93;;;12.80;99.90;;;;;;5024584;28;20059;-74
2022/10/13 05:23:40;;;;;;;13.40;6.45;;;12.80;99.90;;;;;;5021115;28;20033;-73
2022/10/13 05:26:11;;;;;;;15.05;5.97;;;12.70;99.90;;;;;;5021586;28;20479;-73
2022/10/13 05:28:37;;;;;;;11.10;7.03;;;12.60;99.90;;;;;;5020582;28;20080;-73
2022/10/13 05:31:20;;;;;;;11.43;5.95;;;12.60;99.90;;;;;;5019409;28;20029;-73
2022/10/13 05:33:46;;;;;;;10.15;5.70;;;12.50;99.90;;;;;;5020753;28;20033;-72
2022/10/13 05:36:21;;;;;;;16.40;6.30;;;12.50;99.90;;;;;;5026556;28;20076;-73
2022/10/13 05:38:51;;;;;;;12.98;6.80;;;12.50;99.90;;;;;;5032451;28;20105;-72
2022/10/13 05:41:17;;;;;;;15.98;6.13;;;12.60;99.90;;;;;;5029290;28;20356;-72
2022/10/13 05:43:43;;;;;;;14.10;7.22;;;12.60;99.90;;;;;;5026862;28;20029;-72
2022/10/13 05:46:09;;;;;;;15.18;7.05;;;12.60;99.90;;;;;;5025679;28;20387;-73
2022/10/13 05:48:35;;;;;;;8.40;5.22;;;12.60;99.90;;;;;;5026070;28;20029;-72
2022/10/13 05:51:05;;;;;;;13.57;7.28;;;12.60;99.90;;;;;;5025581;28;20498;-73
2022/10/13 05:53:36;;;;;;;13.57;5.53;;;12.70;99.90;;;;;;5024689;28;20160;-72
2022/10/13 05:56:14;;;;;;;11.93;6.50;;;12.70;99.90;;;;;;5025411;28;20249;-73
2022/10/13 05:58:53;;;;;;;9.95;6.10;;;12.60;99.90;;;;;;5025283;28;20036;-72
2022/10/13 06:01:22;;;;;;;9.55;5.60;;;12.50;99.90;;;;;;5028059;28;20029;-73
2022/10/13 06:03:50;;;;;;;10.38;5.88;;;12.60;99.90;;;;;;5024318;28;20044;-73
2022/10/13 06:06:16;;;;;;;16.20;5.38;;;12.60;99.90;;;;;;5029115;28;21646;-73
2022/10/13 06:08:42;;;;;;;13.55;6.55;;;12.70;99.90;;;;;;5026641;28;20021;-73
2022/10/13 06:11:08;;;;;;;12.13;6.82;;;12.80;99.90;;;;;;5022957;28;20596;-73
2022/10/13 06:13:34;;;;;;;13.20;6.40;;;12.80;99.90;;;;;;5024958;28;20041;-72
2022/10/13 06:16:00;;;;;;;11.07;5.80;;;12.70;99.90;;;;;;5023758;28;20030;-72
2022/10/13 06:18:26;;;;;;;10.27;6.30;;;12.60;99.90;;;;;;5023008;28;20033;-73
2022/10/13 06:20:51;;;;;;;13.38;6.40;;;12.60;99.90;;;;;;5026024;28;20029;-75
2022/10/13 06:23:17;;;;;;;8.90;6.25;;;12.60;99.90;;;;;;5029338;28;20061;-74
2022/10/13 06:25:50;;;;;;;10.93;6.20;;;12.60;99.90;;;;;;5023602;28;20021;-74
2022/10/13 06:28:19;;;;;;;12.05;6.38;;;12.50;99.90;;;;;;5024933;28;20036;-74
2022/10/13 06:30:52;;;;;;;14.13;6.22;;;12.60;99.90;;;;;;5023676;28;20025;-74
2022/10/13 06:33:18;;;;;;;15.80;6.82;;;12.60;99.90;;;;;;5030583;28;20471;-74
2022/10/13 06:35:43;;;;;;;12.40;6.78;;;12.60;99.90;;;;;;5024330;28;20026;-73
2022/10/13 06:38:09;;;;;;;11.80;6.95;;;12.60;99.90;;;;;;5025290;28;20025;-74
2022/10/13 06:40:35;;;;;;;12.68;6.60;;;12.70;99.90;;;;;;5027342;28;20031;-74
2022/10/13 06:43:00;;;;;;;10.88;6.35;;;12.80;99.90;;;;;;5025598;28;20119;-74
2022/10/13 06:45:26;;;;;;;14.52;6.63;;;12.80;99.90;;;;;;5028968;28;20025;-73
2022/10/13 06:47:53;;;;;;;13.85;6.47;;;12.90;99.90;;;;;;5023530;28;20095;-74
2022/10/13 06:50:20;;;;;;;13.00;7.15;;;12.90;99.90;;;;;;5023587;28;20103;-74
2022/10/13 06:52:47;;;;;;;10.70;6.10;;;13.00;99.90;;;;;;5027853;28;20029;-74
2022/10/13 06:55:13;;;;;;;8.85;6.13;;;13.00;99.90;;;;;;5030050;28;20057;-74
2022/10/13 06:57:38;;;;;;;11.32;6.40;;;12.90;99.90;;;;;;5028886;28;20210;-74
2022/10/13 07:00:05;;;;;;;15.35;6.72;;;12.90;99.90;;;;;;5025016;28;20536;-74
2022/10/13 07:02:31;;;;;;;12.23;7.32;;;12.80;99.90;;;;;;5027096;28;20033;-74
2022/10/13 07:04:57;;;;;;;19.85;6.47;;;12.90;99.90;;;;;;5026072;28;20506;-74
2022/10/13 07:07:23;;;;;;;8.95;5.47;;;12.90;99.90;;;;;;5028974;28;20032;-74
2022/10/13 07:09:49;;;;;;;11.32;6.00;;;12.80;99.90;;;;;;5024606;28;20041;-73
2022/10/13 07:12:15;;;;;;;13.32;6.22;;;12.80;99.90;;;;;;5027610;28;20095;-73
2022/10/13 07:14:41;;;;;;;8.85;5.40;;;12.70;99.90;;;;;;5022845;28;20042;-74
2022/10/13 07:17:06;;;;;;;15.10;6.07;;;12.80;99.90;;;;;;5017085;28;20502;-74
2022/10/13 07:19:32;;;;;;;9.73;6.30;;;12.80;99.90;;;;;;5026106;28;20575;-74
2022/10/13 07:21:58;;;;;;;12.20;5.95;;;12.80;99.90;;;;;;5023563;28;20041;-74
2022/10/13 07:24:24;;;;;;;10.68;6.00;;;12.80;99.90;;;;;;5022373;28;20870;-74
2022/10/13 07:26:50;;;;;;;13.20;7.10;;;12.90;99.90;;;;;;5024593;28;20041;-74
2022/10/13 07:29:16;;;;;;;12.63;6.05;;;12.90;99.90;;;;;;5031691;28;20512;-74
2022/10/13 07:31:43;;;;;;;11.10;5.68;;;12.90;99.90;;;;;;5022887;28;20495;-74
2022/10/13 07:34:08;;;;;;;12.88;6.45;;;12.80;99.90;;;;;;5022105;28;20052;-74
2022/10/13 07:36:34;;;;;;;15.45;6.80;;;12.80;99.90;;;;;;5016700;28;20032;-74
2022/10/13 07:39:02;;;;;;;50.03;8.52;;;12.80;99.90;;;;;;5026823;28;20025;-74
2022/10/13 07:41:27;;;;;;;10.63;5.72;;;12.90;99.90;;;;;;5028740;28;20025;-74
2022/10/13 07:43:54;;;;;;;9.15;5.97;;;12.90;99.90;;;;;;5022375;28;20576;-74
2022/10/13 07:46:20;;;;;;;11.07;7.20;;;12.90;99.90;;;;;;5028626;28;20110;-74
2022/10/13 07:48:46;;;;;;;14.35;6.50;;;12.90;99.90;;;;;;5026501;28;20041;-74
2022/10/13 07:51:12;;;;;;;9.80;5.68;;;13.00;99.90;;;;;;5022646;28;20049;-74
2022/10/13 07:53:39;;;;;;;16.33;6.30;;;13.10;99.90;;;;;;5021874;28;20037;-74
2022/10/13 07:56:07;;;;;;;11.57;7.13;;;13.20;99.90;;;;;;5023230;28;20026;-74
2022/10/13 07:58:37;;;;;;;9.70;5.75;;;13.30;99.90;;;;;;5027975;28;20399;-74
2022/10/13 08:01:04;;;;;;;10.25;5.78;;;13.40;99.90;;;;;;5023073;28;20021;-74
2022/10/13 08:03:31;;;;;;;10.35;6.88;;;13.40;99.90;;;;;;5025752;28;20388;-74
2022/10/13 08:06:01;;;;;;;14.85;6.30;;;13.40;99.90;;;;;;5032274;28;20672;-74
2022/10/13 08:08:27;;;;;;;13.45;7.45;;;13.50;99.90;;;;;;5023495;28;20037;-74
2022/10/13 08:10:52;;;;;;;18.40;8.07;;;13.50;99.90;;;;;;5020551;28;20032;-74
2022/10/13 08:13:18;;;;;;;15.13;6.55;;;13.60;99.90;;;;;;5022262;28;20039;-74
2022/10/13 08:15:45;;;;;;;15.25;6.43;;;13.60;99.90;;;;;;5021214;28;20219;-74
2022/10/13 08:18:12;;;;;;;15.05;5.53;;;13.60;99.90;;;;;;5020589;28;21291;-74
2022/10/13 08:20:42;;;;;;;13.45;6.47;;;13.70;99.90;;;;;;5021856;28;20613;-74
2022/10/13 08:23:08;;;;;;;13.10;6.28;;;13.70;99.90;;;;;;5022341;28;20045;-74
2022/10/13 08:25:41;;;;;;;12.02;6.50;;;13.80;99.90;;;;;;5021222;28;20029;-74
2022/10/13 08:28:19;;;;;;;11.27;6.97;;;13.80;99.90;;;;;;5022483;28;20543;-74
2022/10/13 08:30:45;;;;;;;11.15;6.00;;;13.80;99.90;;;;;;5026329;28;20038;-74
2022/10/13 08:33:10;;;;;;;11.60;6.75;;;13.90;99.90;;;;;;5024109;28;20033;-74
2022/10/13 08:35:37;;;;;;;15.10;7.50;;;13.90;99.90;;;;;;5028277;28;20033;-74
2022/10/13 08:38:02;;;;;;;15.27;6.57;;;14.00;99.90;;;;;;5029811;28;20487;-74
2022/10/13 08:40:28;;;;;;;9.52;5.97;;;14.00;99.90;;;;;;5022250;28;20029;-74
2022/10/13 08:42:54;;;;;;;11.40;6.05;;;14.10;99.90;;;;;;5024642;28;20029;-74
2022/10/13 08:45:26;;;;;;;13.27;6.47;;;14.20;99.90;;;;;;5025119;28;20039;-74
2022/10/13 08:47:56;;;;;;;8.40;5.30;;;14.30;99.90;;;;;;5020985;28;20041;-74
2022/10/13 08:50:25;;;;;;;10.90;5.85;;;14.40;99.90;;;;;;5020409;28;20025;-74
2022/10/13 08:52:57;;;;;;;15.43;6.47;;;14.40;99.90;;;;;;5021751;28;25021;-74
2022/10/13 08:56:09;;;;;;;9.63;5.72;;;14.50;99.90;;;;;;5022789;28;20029;-74
2022/10/13 08:58:38;;;;;;;11.77;6.40;;;14.50;99.90;;;;;;5032807;28;20033;-74
2022/10/13 09:01:03;;;;;;;11.68;6.15;;;14.60;99.90;;;;;;5020266;28;20049;-74
2022/10/13 09:03:29;;;;;;;12.75;5.72;;;14.70;99.90;;;;;;5022772;28;20090;-74
2022/10/13 09:05:58;;;;;;;10.15;5.47;;;14.80;99.90;;;;;;5021004;28;20022;-74
2022/10/13 09:08:28;;;;;;;10.82;6.05;;;14.80;99.90;;;;;;5019699;28;20562;-74
2022/10/13 09:10:54;;;;;;;9.50;5.68;;;14.90;99.90;;;;;;5028370;28;20124;-74
2022/10/13 09:13:19;;;;;;;12.18;6.15;;;15.00;99.90;;;;;;5028003;28;20559;-74
2022/10/13 09:15:49;;;;;;;7.30;4.70;;;15.20;99.90;;;;;;5027210;28;20083;-74
2022/10/13 09:18:15;;;;;;;8.93;5.30;;;15.30;99.90;;;;;;5021326;28;20037;-74
2022/10/13 09:20:41;;;;;;;10.13;5.97;;;15.20;99.90;;;;;;5024144;28;20029;-74
2022/10/13 09:23:16;;;;;;;10.93;5.60;;;15.20;99.90;;;;;;5020082;28;20037;-74
2022/10/13 09:25:45;;;;;;;10.43;5.85;;;15.20;99.90;;;;;;5022205;28;20052;-74
2022/10/13 09:28:24;;;;;;;10.82;5.63;;;15.30;99.90;;;;;;5033910;28;20044;-74
2022/10/13 09:31:03;;;;;;;12.55;5.55;;;15.40;99.90;;;;;;5022987;28;20025;-74
2022/10/13 09:33:32;;;;;;;9.88;5.75;;;15.40;99.90;;;;;;5025248;28;20078;-74
2022/10/13 09:35:58;;;;;;;11.23;6.53;;;15.70;99.90;;;;;;5022982;28;20048;-74
2022/10/13 09:38:25;;;;;;;12.35;5.97;;;15.70;99.90;;;;;;5020642;28;20025;-74
2022/10/13 09:41:03;;;;;;;8.95;4.90;;;15.80;99.90;;;;;;5023468;28;20033;-74
2022/10/13 09:43:30;;;;;;;11.63;6.15;;;16.00;99.90;;;;;;5023106;28;20087;-74
2022/10/13 09:45:58;;;;;;;11.10;5.80;;;16.10;99.90;;;;;;5027160;28;20090;-74
2022/10/13 09:48:28;;;;;;;11.20;5.30;;;16.20;99.90;;;;;;5026648;28;20051;-74
2022/10/13 09:50:55;;;;;;;9.90;5.20;;;16.30;99.90;;;;;;5020754;28;20032;-74
2022/10/13 09:53:24;;;;;;;8.10;5.35;;;16.30;99.90;;;;;;5028992;28;20029;-74
2022/10/13 09:56:05;;;;;;;12.70;5.88;;;16.40;99.90;;;;;;5020718;28;20025;-74
2022/10/13 09:58:34;;;;;;;10.10;5.75;;;16.40;99.90;;;;;;5020149;28;20037;-74
2022/10/13 10:00:59;;;;;;;11.02;5.60;;;16.40;99.90;;;;;;5021110;28;20095;-74
2022/10/13 10:03:34;;;;;;;8.32;5.40;;;16.60;99.90;;;;;;5019746;28;20045;-74
2022/10/13 10:06:02;;;;;;;13.75;4.90;;;16.70;99.90;;;;;;5020144;28;20037;-74
2022/10/13 10:08:34;;;;;;;9.98;5.25;;;16.60;99.90;;;;;;5023111;28;20040;-74
2022/10/13 10:11:03;;;;;;;10.73;5.57;;;16.70;99.90;;;;;;5029231;28;20512;-74
2022/10/13 10:13:29;;;;;;;9.45;5.47;;;16.70;99.90;;;;;;5026809;28;20053;-74
2022/10/13 10:16:34;;;;;;;10.80;5.35;;;16.70;99.90;;;;;;5026839;28;20036;-74
2022/10/13 10:19:02;;;;;;;8.48;4.80;;;16.80;99.90;;;;;;5018643;28;20036;-74
2022/10/13 10:21:59;;;;;;;9.95;5.22;;;16.90;99.90;;;;;;5019334;28;20448;-74
2022/10/13 10:24:40;;;;;;;13.95;6.03;;;17.10;99.90;;;;;;5025068;28;20045;-74
2022/10/13 10:27:20;;;;;;;11.55;5.45;;;17.30;99.90;;;;;;5024163;28;20018;-74
2022/10/13 10:29:53;;;;;;;8.15;5.22;;;17.30;99.90;;;;;;5024514;28;20499;-74
2022/10/13 10:32:28;;;;;;;9.68;4.78;;;17.40;99.90;;;;;;5024657;28;20025;-74
2022/10/13 10:35:15;;;;;;;12.30;5.50;;;17.50;99.90;;;;;;5033568;28;20039;-74
2022/10/13 10:37:56;;;;;;;11.32;5.22;;;17.50;99.90;;;;;;5023815;28;20033;-74
2022/10/13 10:40:40;;;;;;;12.43;5.40;;;17.70;99.90;;;;;;5026893;28;20032;-74
2022/10/13 10:43:26;;;;;;;7.47;4.30;;;18.00;99.90;;;;;;5023428;28;20045;-74
2022/10/13 10:45:57;;;;;;;9.75;4.80;;;18.20;99.90;;;;;;5023256;28;20033;-74
2022/10/13 10:48:36;;;;;;;8.38;4.50;;;18.40;99.90;;;;;;5030011;28;20033;-74
2022/10/13 10:51:06;;;;;;;8.60;4.65;;;18.40;99.90;;;;;;5023941;28;20093;-74
2022/10/13 10:53:53;;;;;;;10.02;4.07;;;18.60;99.90;;;;;;5022417;28;20401;-74
2022/10/13 10:56:37;;;;;;;9.55;4.60;;;18.80;99.90;;;;;;5022828;28;20037;-74
2022/10/13 10:59:20;;;;;;;7.43;4.82;;;18.70;99.90;;;;;;5030030;28;20048;-74
2022/10/13 11:02:00;;;;;;;10.65;5.35;;;19.00;99.90;;;;;;5028614;28;20028;-74
2022/10/13 11:04:40;;;;;;;11.07;4.85;;;19.20;99.90;;;;;;5022246;28;20472;-74
2022/10/13 11:07:21;;;;;;;8.15;4.47;;;19.20;99.60;;;;;;5022966;28;20039;-74
2022/10/13 11:09:47;;;;;;;10.68;4.60;;;19.00;99.50;;;;;;5023552;28;20025;-74
2022/10/13 11:12:19;;;;;;;8.40;4.57;;;19.10;99.20;;;;;;5022417;28;20033;-75
2022/10/13 11:15:07;;;;;;;8.13;4.97;;;19.10;99.90;;;;;;5021596;28;20566;-75
2022/10/13 11:17:37;;;;;;;8.73;4.35;;;19.20;99.90;;;;;;5025168;28;20045;-74
2022/10/13 11:20:21;;;;;;;8.10;5.32;;;19.10;99.30;;;;;;5024559;28;20036;-75
2022/10/13 11:22:59;;;;;;;7.30;4.57;;;19.20;99.60;;;;;;5025008;28;20037;-74
2022/10/13 11:25:43;;;;;;;7.25;4.18;;;19.00;99.70;;;;;;5027139;28;20036;-74
2022/10/13 11:28:20;;;;;;;11.75;4.93;;;19.10;99.80;;;;;;5028741;28;20021;-74
2022/10/13 11:30:54;;;;;;;9.10;4.43;;;19.30;99.90;;;;;;5033514;28;20028;-74
2022/10/13 11:33:38;;;;;;;9.07;4.40;;;19.30;99.50;;;;;;5030085;28;20018;-74
2022/10/13 11:36:28;;;;;;;8.05;4.40;;;19.70;99.80;;;;;;5025946;28;20037;-74
2022/10/13 11:39:35;;;;;;;9.77;4.93;;;19.90;99.50;;;;;;5035574;28;20021;-74
2022/10/13 11:42:19;;;;;;;11.07;4.55;;;19.90;99.50;;;;;;5022271;28;20124;-74
2022/10/13 11:44:48;;;;;;;10.45;4.22;;;19.80;98.60;;;;;;5026207;28;20500;-74
2022/10/13 11:47:34;;;;;;;8.52;5.30;;;19.70;98.60;;;;;;5030940;28;20943;-74
2022/10/13 11:50:38;;;;;;;9.95;4.80;;;19.70;99.00;;;;;;5024651;28;20029;-74
2022/10/13 11:53:07;;;;;;;11.32;4.50;;;19.80;98.80;;;;;;5024558;28;20102;-74
2022/10/13 11:55:44;;;;;;;9.77;4.85;;;19.80;98.20;;;;;;5030198;28;20467;-73
2022/10/13 11:58:20;;;;;;;7.78;4.88;;;19.70;97.80;;;;;;5034206;28;20039;-73
2022/10/13 12:01:10;;;;;;;10.00;4.13;;;20.00;97.80;;;;;;5032598;28;20031;-72
2022/10/13 12:03:44;;;;;;;8.80;4.18;;;20.20;97.80;;;;;;5033913;28;20055;-73
2022/10/13 12:06:34;;;;;;;8.15;4.20;;;20.10;97.40;;;;;;5029344;28;20612;-72
2022/10/13 12:09:20;;;;;;;10.10;5.00;;;20.10;97.90;;;;;;5026052;28;20029;-74
2022/10/13 12:11:54;;;;;;;6.45;4.07;;;20.40;97.80;;;;;;5022866;28;20033;-73
2022/10/13 12:14:21;;;;;;;;;;;20.20;97.30;;;;;;5026516;28;20491;-73
2022/10/13 12:16:54;;;;;;;9.88;4.35;;;20.10;97.60;;;;;;5022773;28;19919;-73
2022/10/13 12:19:27;;;;;;;9.25;5.28;;;20.00;97.50;;;;;;5025045;28;20483;-73
2022/10/13 12:21:55;;;;;;;14.18;4.55;;;20.10;97.60;;;;;;5021646;28;20029;-73
2022/10/13 12:24:26;;;;;;;9.93;4.57;;;20.00;97.60;;;;;;5021757;28;20080;-73
2022/10/13 12:26:53;;;;;;;7.28;4.40;;;20.00;98.40;;;;;;5027847;28;20869;-73
2022/10/13 12:29:24;;;;;;;12.23;4.65;;;20.10;98.30;;;;;;5021060;28;20345;-73
2022/10/13 12:31:50;;;;;;;8.73;5.03;;;20.10;97.70;;;;;;5021847;28;20025;-74
2022/10/13 12:34:21;;;;;;;7.82;5.03;;;20.10;98.20;;;;;;5025227;28;20033;-73
2022/10/13 12:37:04;;;;;;;9.38;4.25;;;20.20;99.00;;;;;;5022299;28;20033;-74
2022/10/13 12:39:33;;;;;;;8.55;4.68;;;20.20;97.90;;;;;;5021386;28;20084;-73
2022/10/13 12:42:01;;;;;;;9.93;5.28;;;20.10;97.60;;;;;;5020945;28;20106;-72
2022/10/13 12:44:29;;;;;;;10.20;4.70;;;20.10;97.50;;;;;;5022201;28;20037;-73
2022/10/13 12:47:02;;;;;;;9.63;4.75;;;19.90;98.00;;;;;;5020036;28;20033;-73
2022/10/13 12:49:33;;;;;;;9.77;5.00;;;20.00;98.40;;;;;;5023570;28;20036;-74
2022/10/13 12:52:08;;;;;;;10.20;4.75;;;19.90;97.80;;;;;;5023343;28;20736;-73
2022/10/13 12:54:45;;;;;;;7.05;4.10;;;20.00;98.50;;;;;;5028360;28;20034;-73
2022/10/13 12:57:34;;;;;;;9.48;5.03;;;20.00;97.30;;;;;;5024175;28;20418;-74